Main page
METAR-TAF:

METAR-TAF

Airports :

Palo Alto Airport

Palo Alto, California, United States

latitude: 37-28N, longitude: 122-07W, elevation: 7 ft

Current weather observation

The report was made 8 hours and 29 minutes ago, at 04:47 UTC
Wind 8 mph from the West
Temperature 52°F
Humidity 76%
Pressure 30.00 in. Hg
Visibility: 10 miles
Broken clouds at a height of 6000 ft

METAR: KPAO 270447Z 26007KT 10SM BKN060 11/07 A3000 RMK LAST

Time: 05:16 (13:16 UTC)


TAF: missing

Weather observations and forecasts of more than 4000 airports (METAR and TAF reports).

The available stations are represented by yellow and red dots on the map.

Hover mouse over dot to see the name of the station.

Then click to see weather observations and forecasts.

To change the map : click on the green buttons with a black cross to zoom in, on the green button with a dash to zoom out, or on the green arrows for adjacent maps.


METAR-TAF: